sensor_id;sensor_type;location;lat;lon;timestamp;pressure;altitude;pressure_sealevel;temperature;humidity
47897;BME280;39629;51.400;5.494;2024-02-21T00:02:32;102220.84;;;8.98;87.85
47897;BME280;39629;51.400;5.494;2024-02-21T00:07:34;102224.06;;;8.90;87.80
47897;BME280;39629;51.400;5.494;2024-02-21T00:12:37;102224.88;;;8.91;88.37
47897;BME280;39629;51.400;5.494;2024-02-21T00:17:39;102216.28;;;8.89;88.66
47897;BME280;39629;51.400;5.494;2024-02-21T00:22:41;102222.72;;;8.88;88.70
47897;BME280;39629;51.400;5.494;2024-02-21T00:27:44;102227.03;;;8.89;88.00
47897;BME280;39629;51.400;5.494;2024-02-21T00:32:45;102214.41;;;8.89;87.87
47897;BME280;39629;51.400;5.494;2024-02-21T00:37:47;102210.94;;;8.89;87.49
47897;BME280;39629;51.400;5.494;2024-02-21T00:42:50;102189.75;;;8.82;88.58
47897;BME280;39629;51.400;5.494;2024-02-21T00:47:52;102188.44;;;8.74;87.59
47897;BME280;39629;51.400;5.494;2024-02-21T00:52:54;102167.00;;;8.64;88.14
47897;BME280;39629;51.400;5.494;2024-02-21T00:57:57;102167.56;;;8.56;88.37
47897;BME280;39629;51.400;5.494;2024-02-21T01:02:58;102160.34;;;8.52;87.80
47897;BME280;39629;51.400;5.494;2024-02-21T01:08:00;102175.34;;;8.53;89.32
47897;BME280;39629;51.400;5.494;2024-02-21T01:13:03;102162.47;;;8.49;89.22
47897;BME280;39629;51.400;5.494;2024-02-21T01:18:06;102160.63;;;8.40;89.07
47897;BME280;39629;51.400;5.494;2024-02-21T01:23:07;102149.91;;;8.40;89.43
47897;BME280;39629;51.400;5.494;2024-02-21T01:28:11;102127.41;;;8.26;89.82
47897;BME280;39629;51.400;5.494;2024-02-21T01:33:12;102129.84;;;8.37;88.38
47897;BME280;39629;51.400;5.494;2024-02-21T01:38:14;102129.56;;;8.34;89.21
47897;BME280;39629;51.400;5.494;2024-02-21T01:43:19;102122.31;;;8.24;90.18
47897;BME280;39629;51.400;5.494;2024-02-21T01:48:21;102112.69;;;8.43;88.28
47897;BME280;39629;51.400;5.494;2024-02-21T01:53:28;102112.69;;;8.48;88.02
47897;BME280;39629;51.400;5.494;2024-02-21T01:58:33;102110.56;;;8.40;88.29
47897;BME280;39629;51.400;5.494;2024-02-21T02:03:38;102127.44;;;8.36;88.71
47897;BME280;39629;51.400;5.494;2024-02-21T02:08:40;102122.31;;;8.44;88.28
47897;BME280;39629;51.400;5.494;2024-02-21T02:13:43;102113.75;;;8.47;88.69
47897;BME280;39629;51.400;5.494;2024-02-21T02:18:45;102105.19;;;8.51;87.26
47897;BME280;39629;51.400;5.494;2024-02-21T02:23:48;102092.59;;;8.46;87.91
47897;BME280;39629;51.400;5.494;2024-02-21T02:28:50;102095.03;;;8.42;88.16
47897;BME280;39629;51.400;5.494;2024-02-21T02:33:52;102071.72;;;8.43;87.85
47897;BME280;39629;51.400;5.494;2024-02-21T02:38:55;102062.59;;;8.49;88.20
47897;BME280;39629;51.400;5.494;2024-02-21T02:43:56;102066.09;;;8.49;87.96
47897;BME280;39629;51.400;5.494;2024-02-21T02:48:58;102065.03;;;8.45;87.31
47897;BME280;39629;51.400;5.494;2024-02-21T02:54:02;102056.19;;;8.50;87.05
47897;BME280;39629;51.400;5.494;2024-02-21T02:59:04;102045.75;;;8.48;87.23
47897;BME280;39629;51.400;5.494;2024-02-21T03:04:05;102037.44;;;8.45;86.88
47897;BME280;39629;51.400;5.494;2024-02-21T03:09:08;102022.69;;;8.58;86.11
47897;BME280;39629;51.400;5.494;2024-02-21T03:14:10;102028.06;;;8.47;86.83
47897;BME280;39629;51.400;5.494;2024-02-21T03:19:12;102036.59;;;8.60;85.67
47897;BME280;39629;51.400;5.494;2024-02-21T03:24:15;102029.38;;;8.60;85.39
47897;BME280;39629;51.400;5.494;2024-02-21T03:29:17;102016.81;;;8.51;86.41
47897;BME280;39629;51.400;5.494;2024-02-21T03:34:19;102006.91;;;8.51;87.61
47897;BME280;39629;51.400;5.494;2024-02-21T03:39:22;101998.63;;;8.47;87.02
47897;BME280;39629;51.400;5.494;2024-02-21T03:44:24;101984.13;;;8.54;86.90
47897;BME280;39629;51.400;5.494;2024-02-21T03:49:26;101977.44;;;8.51;87.58
47897;BME280;39629;51.400;5.494;2024-02-21T03:54:29;101979.34;;;8.45;88.07
47897;BME280;39629;51.400;5.494;2024-02-21T03:59:31;101962.25;;;8.36;88.12
47897;BME280;39629;51.400;5.494;2024-02-21T04:04:33;101958.50;;;8.32;88.81
47897;BME280;39629;51.400;5.494;2024-02-21T04:09:36;101963.06;;;8.32;88.75
47897;BME280;39629;51.400;5.494;2024-02-21T04:14:38;101966.25;;;8.39;88.31
47897;BME280;39629;51.400;5.494;2024-02-21T04:19:40;101970.28;;;8.36;87.90
47897;BME280;39629;51.400;5.494;2024-02-21T04:24:43;101969.19;;;8.27;89.09
47897;BME280;39629;51.400;5.494;2024-02-21T04:29:45;101959.59;;;8.31;89.33
47897;BME280;39629;51.400;5.494;2024-02-21T04:34:46;101970.53;;;8.30;88.65
47897;BME280;39629;51.400;5.494;2024-02-21T04:39:50;101964.13;;;8.26;89.44
47897;BME280;39629;51.400;5.494;2024-02-21T04:44:52;101965.44;;;8.28;89.55
47897;BME280;39629;51.400;5.494;2024-02-21T04:49:54;101966.81;;;8.31;89.99
47897;BME280;39629;51.400;5.494;2024-02-21T04:54:57;101959.03;;;8.29;90.43
47897;BME280;39629;51.400;5.494;2024-02-21T04:59:59;101960.63;;;8.35;89.78
47897;BME280;39629;51.400;5.494;2024-02-21T05:05:01;101952.09;;;8.33;88.74
47897;BME280;39629;51.400;5.494;2024-02-21T05:10:06;101941.38;;;8.28;89.80
47897;BME280;39629;51.400;5.494;2024-02-21T05:15:08;101940.03;;;8.26;90.35
47897;BME280;39629;51.400;5.494;2024-02-21T05:20:11;101937.09;;;8.32;89.02
47897;BME280;39629;51.400;5.494;2024-02-21T05:25:14;101936.28;;;8.32;89.40
47897;BME280;39629;51.400;5.494;2024-02-21T05:30:16;101912.47;;;8.35;88.78
47897;BME280;39629;51.400;5.494;2024-02-21T05:35:18;101911.66;;;8.35;88.68
47897;BME280;39629;51.400;5.494;2024-02-21T05:40:23;101891.59;;;8.32;89.05
47897;BME280;39629;51.400;5.494;2024-02-21T05:45:26;101895.59;;;8.30;89.74
47897;BME280;39629;51.400;5.494;2024-02-21T05:50:29;101889.72;;;8.33;88.63
47897;BME280;39629;51.400;5.494;2024-02-21T05:55:34;101886.75;;;8.34;89.22
47897;BME280;39629;51.400;5.494;2024-02-21T06:00:37;101875.78;;;8.36;88.39
47897;BME280;39629;51.400;5.494;2024-02-21T06:05:40;101868.56;;;8.36;88.43
47897;BME280;39629;51.400;5.494;2024-02-21T06:10:44;101856.75;;;8.37;88.95
47897;BME280;39629;51.400;5.494;2024-02-21T06:15:46;101847.41;;;8.35;88.74
47897;BME280;39629;51.400;5.494;2024-02-21T06:20:49;101834.03;;;8.30;89.21
47897;BME280;39629;51.400;5.494;2024-02-21T06:25:53;101833.22;;;8.34;88.58
47897;BME280;39629;51.400;5.494;2024-02-21T06:30:55;101842.88;;;8.30;88.59
47897;BME280;39629;51.400;5.494;2024-02-21T06:35:57;101832.19;;;8.25;89.39
47897;BME280;39629;51.400;5.494;2024-02-21T06:41:00;101837.53;;;8.30;88.34
47897;BME280;39629;51.400;5.494;2024-02-21T06:46:03;101839.38;;;8.30;88.75
47897;BME280;39629;51.400;5.494;2024-02-21T06:51:05;101836.97;;;8.28;89.47
47897;BME280;39629;51.400;5.494;2024-02-21T06:56:08;101840.22;;;8.30;89.13
47897;BME280;39629;51.400;5.494;2024-02-21T07:01:10;101847.69;;;8.33;89.10
47897;BME280;39629;51.400;5.494;2024-02-21T07:06:12;101843.94;;;8.34;89.05
47897;BME280;39629;51.400;5.494;2024-02-21T07:11:15;101834.28;;;8.38;87.99
47897;BME280;39629;51.400;5.494;2024-02-21T07:16:17;101824.88;;;8.41;88.44
47897;BME280;39629;51.400;5.494;2024-02-21T07:21:19;101823.81;;;8.42;88.11
47897;BME280;39629;51.400;5.494;2024-02-21T07:26:22;101815.78;;;8.42;88.54
47897;BME280;39629;51.400;5.494;2024-02-21T07:31:24;101814.66;;;8.48;87.52
47897;BME280;39629;51.400;5.494;2024-02-21T07:36:28;101803.69;;;8.49;87.85
47897;BME280;39629;51.400;5.494;2024-02-21T07:41:32;101793.50;;;8.52;87.74
47897;BME280;39629;51.400;5.494;2024-02-21T07:46:35;101797.72;;;8.58;87.69
47897;BME280;39629;51.400;5.494;2024-02-21T07:51:36;101782.97;;;8.60;87.13
47897;BME280;39629;51.400;5.494;2024-02-21T07:56:39;101762.59;;;8.64;87.64
47897;BME280;39629;51.400;5.494;2024-02-21T08:01:41;101756.41;;;8.69;86.52
47897;BME280;39629;51.400;5.494;2024-02-21T08:06:45;101764.16;;;8.70;87.60
47897;BME280;39629;51.400;5.494;2024-02-21T08:11:50;101759.03;;;8.74;86.39
47897;BME280;39629;51.400;5.494;2024-02-21T08:16:52;101745.09;;;8.77;86.95
47897;BME280;39629;51.400;5.494;2024-02-21T08:21:56;101738.94;;;8.76;87.15
47897;BME280;39629;51.400;5.494;2024-02-21T08:26:59;101724.38;;;8.88;86.57
47897;BME280;39629;51.400;5.494;2024-02-21T08:32:00;101720.34;;;8.90;85.83
47897;BME280;39629;51.400;5.494;2024-02-21T08:37:02;101703.69;;;8.93;86.88
47897;BME280;39629;51.400;5.494;2024-02-21T08:42:06;101702.91;;;8.93;87.47
47897;BME280;39629;51.400;5.494;2024-02-21T08:47:08;101708.78;;;8.95;88.13
47897;BME280;39629;51.400;5.494;2024-02-21T08:52:10;101697.91;;;8.81;88.63
47897;BME280;39629;51.400;5.494;2024-02-21T08:57:13;101690.75;;;8.71;90.15
47897;BME280;39629;51.400;5.494;2024-02-21T09:02:15;101667.97;;;8.74;90.14
47897;BME280;39629;51.400;5.494;2024-02-21T09:07:17;101656.22;;;8.70;89.99
47897;BME280;39629;51.400;5.494;2024-02-21T09:12:20;101647.06;;;8.76;90.61
47897;BME280;39629;51.400;5.494;2024-02-21T09:17:22;101659.38;;;8.77;90.14
47897;BME280;39629;51.400;5.494;2024-02-21T09:22:25;101646.97;;;8.86;89.45
47897;BME280;39629;51.400;5.494;2024-02-21T09:27:28;101658.44;;;8.92;89.06
47897;BME280;39629;51.400;5.494;2024-02-21T09:32:30;101648.06;;;8.85;87.75
47897;BME280;39629;51.400;5.494;2024-02-21T09:37:33;101643.72;;;8.89;87.98
47897;BME280;39629;51.400;5.494;2024-02-21T09:42:38;101627.09;;;8.92;87.84
47897;BME280;39629;51.400;5.494;2024-02-21T09:47:46;101613.34;;;8.99;88.04
47897;BME280;39629;51.400;5.494;2024-02-21T09:52:54;101588.38;;;9.03;84.96
47897;BME280;39629;51.400;5.494;2024-02-21T09:57:58;101589.31;;;9.12;85.13
47897;BME280;39629;51.400;5.494;2024-02-21T10:03:00;101572.13;;;9.19;85.34
47897;BME280;39629;51.400;5.494;2024-02-21T10:08:14;101567.13;;;9.31;84.41
47897;BME280;39629;51.400;5.494;2024-02-21T10:13:24;101547.94;;;9.42;84.49
47897;BME280;39629;51.400;5.494;2024-02-21T10:18:26;101537.84;;;9.53;83.14
47897;BME280;39629;51.400;5.494;2024-02-21T10:23:28;101528.09;;;9.76;83.03
47897;BME280;39629;51.400;5.494;2024-02-21T10:28:32;101507.94;;;9.79;81.17
47897;BME280;39629;51.400;5.494;2024-02-21T10:33:34;101478.13;;;9.80;82.31
47897;BME280;39629;51.400;5.494;2024-02-21T10:38:37;101456.28;;;9.87;80.63
47897;BME280;39629;51.400;5.494;2024-02-21T10:43:41;101441.59;;;9.98;79.58
47897;BME280;39629;51.400;5.494;2024-02-21T10:48:44;101406.31;;;10.04;79.41
47897;BME280;39629;51.400;5.494;2024-02-21T10:53:52;101421.13;;;10.16;77.81
47897;BME280;39629;51.400;5.494;2024-02-21T10:59:01;101410.78;;;10.23;79.92
47897;BME280;39629;51.400;5.494;2024-02-21T11:04:05;101416.34;;;10.26;77.93
47897;BME280;39629;51.400;5.494;2024-02-21T11:09:08;101416.97;;;10.23;78.98
47897;BME280;39629;51.400;5.494;2024-02-21T11:14:18;101426.31;;;10.26;78.64
47897;BME280;39629;51.400;5.494;2024-02-21T11:19:21;101407.69;;;10.43;79.63
47897;BME280;39629;51.400;5.494;2024-02-21T11:24:27;101385.00;;;10.49;77.10
47897;BME280;39629;51.400;5.494;2024-02-21T11:29:31;101377.88;;;10.67;78.23
47897;BME280;39629;51.400;5.494;2024-02-21T11:34:33;101362.06;;;10.79;76.49
47897;BME280;39629;51.400;5.494;2024-02-21T11:39:35;101338.56;;;11.07;75.85
47897;BME280;39629;51.400;5.494;2024-02-21T11:44:39;101332.97;;;11.26;75.04
47897;BME280;39629;51.400;5.494;2024-02-21T11:49:43;101345.47;;;10.99;75.70
47897;BME280;39629;51.400;5.494;2024-02-21T11:54:46;101315.25;;;11.25;75.25
47897;BME280;39629;51.400;5.494;2024-02-21T11:59:51;101285.56;;;11.30;73.97
47897;BME280;39629;51.400;5.494;2024-02-21T12:04:55;101283.13;;;11.20;74.11
47897;BME280;39629;51.400;5.494;2024-02-21T12:09:58;101266.16;;;11.50;73.66
47897;BME280;39629;51.400;5.494;2024-02-21T12:15:02;101251.88;;;11.81;72.91
47897;BME280;39629;51.400;5.494;2024-02-21T12:20:06;101235.13;;;12.01;73.42
47897;BME280;39629;51.400;5.494;2024-02-21T12:25:16;101222.69;;;11.74;72.14
47897;BME280;39629;51.400;5.494;2024-02-21T12:30:20;101203.13;;;11.99;72.98
47897;BME280;39629;51.400;5.494;2024-02-21T12:35:22;101197.41;;;11.84;72.31
47897;BME280;39629;51.400;5.494;2024-02-21T12:40:24;101183.13;;;11.75;72.88
47897;BME280;39629;51.400;5.494;2024-02-21T12:45:34;101164.44;;;11.70;72.02
47897;BME280;39629;51.400;5.494;2024-02-21T12:50:36;101163.97;;;11.59;71.02
47897;BME280;39629;51.400;5.494;2024-02-21T12:55:38;101137.06;;;11.59;73.33
47897;BME280;39629;51.400;5.494;2024-02-21T13:00:41;101102.53;;;11.44;72.43
47897;BME280;39629;51.400;5.494;2024-02-21T13:05:44;101109.03;;;11.34;72.60
47897;BME280;39629;51.400;5.494;2024-02-21T13:10:45;101104.41;;;11.17;73.34
47897;BME280;39629;51.400;5.494;2024-02-21T13:15:49;101091.09;;;11.12;72.83
47897;BME280;39629;51.400;5.494;2024-02-21T13:20:51;101087.97;;;11.27;73.05
47897;BME280;39629;51.400;5.494;2024-02-21T13:25:53;101073.72;;;11.18;73.64
47897;BME280;39629;51.400;5.494;2024-02-21T13:30:56;101067.88;;;11.16;73.67
47897;BME280;39629;51.400;5.494;2024-02-21T13:35:58;101056.81;;;11.18;72.63
47897;BME280;39629;51.400;5.494;2024-02-21T13:41:00;101045.09;;;11.14;73.31
47897;BME280;39629;51.400;5.494;2024-02-21T13:46:03;101028.47;;;11.12;72.32
47897;BME280;39629;51.400;5.494;2024-02-21T13:51:11;101022.16;;;11.08;73.56
47897;BME280;39629;51.400;5.494;2024-02-21T13:56:13;100989.75;;;11.04;72.81
47897;BME280;39629;51.400;5.494;2024-02-21T14:01:16;100977.88;;;10.96;73.33
47897;BME280;39629;51.400;5.494;2024-02-21T14:06:18;100974.41;;;10.96;73.81
47897;BME280;39629;51.400;5.494;2024-02-21T14:11:20;100972.94;;;10.90;73.12
47897;BME280;39629;51.400;5.494;2024-02-21T14:16:23;100960.00;;;10.92;73.98
47897;BME280;39629;51.400;5.494;2024-02-21T14:21:25;100942.31;;;10.91;73.46
47897;BME280;39629;51.400;5.494;2024-02-21T14:26:27;100926.34;;;10.94;73.80
47897;BME280;39629;51.400;5.494;2024-02-21T14:31:31;100901.00;;;10.87;73.02
47897;BME280;39629;51.400;5.494;2024-02-21T14:36:33;100883.78;;;10.79;73.79
47897;BME280;39629;51.400;5.494;2024-02-21T14:41:35;100870.50;;;10.83;73.83
47897;BME280;39629;51.400;5.494;2024-02-21T14:46:38;100852.81;;;10.73;75.52
47897;BME280;39629;51.400;5.494;2024-02-21T14:51:40;100841.72;;;10.57;77.89
47897;BME280;39629;51.400;5.494;2024-02-21T14:56:42;100824.34;;;10.46;77.44
47897;BME280;39629;51.400;5.494;2024-02-21T15:01:45;100816.41;;;10.24;79.12
47897;BME280;39629;51.400;5.494;2024-02-21T15:06:47;100801.25;;;10.11;80.77
47897;BME280;39629;51.400;5.494;2024-02-21T15:11:49;100788.28;;;10.04;80.05
47897;BME280;39629;51.400;5.494;2024-02-21T15:16:52;100772.13;;;9.95;81.58
47897;BME280;39629;51.400;5.494;2024-02-21T15:21:54;100769.44;;;9.87;81.04
47897;BME280;39629;51.400;5.494;2024-02-21T15:26:56;100760.41;;;9.74;83.37
47897;BME280;39629;51.400;5.494;2024-02-21T15:31:59;100758.34;;;9.62;84.71
47897;BME280;39629;51.400;5.494;2024-02-21T15:37:01;100734.47;;;9.43;86.55
47897;BME280;39629;51.400;5.494;2024-02-21T15:42:05;100712.19;;;9.34;87.67
47897;BME280;39629;51.400;5.494;2024-02-21T15:47:08;100701.91;;;9.19;89.47
47897;BME280;39629;51.400;5.494;2024-02-21T15:52:11;100682.91;;;9.07;89.48
47897;BME280;39629;51.400;5.494;2024-02-21T15:57:13;100667.75;;;9.02;90.43
47897;BME280;39629;51.400;5.494;2024-02-21T16:02:16;100643.31;;;8.95;91.30
47897;BME280;39629;51.400;5.494;2024-02-21T16:07:18;100626.59;;;8.90;90.79
47897;BME280;39629;51.400;5.494;2024-02-21T16:12:20;100614.22;;;8.80;92.94
47897;BME280;39629;51.400;5.494;2024-02-21T16:17:25;100612.97;;;8.77;93.08
47897;BME280;39629;51.400;5.494;2024-02-21T16:22:27;100602.22;;;8.69;93.16
47897;BME280;39629;51.400;5.494;2024-02-21T16:27:29;100587.38;;;8.63;94.06
47897;BME280;39629;51.400;5.494;2024-02-21T16:32:32;100573.81;;;8.59;94.18
47897;BME280;39629;51.400;5.494;2024-02-21T16:37:36;100568.13;;;8.52;93.35
47897;BME280;39629;51.400;5.494;2024-02-21T16:42:39;100560.41;;;8.51;93.90
47897;BME280;39629;51.400;5.494;2024-02-21T16:47:42;100555.50;;;8.44;94.27
47897;BME280;39629;51.400;5.494;2024-02-21T16:52:44;100541.81;;;8.45;94.79
47897;BME280;39629;51.400;5.494;2024-02-21T16:57:48;100542.59;;;8.46;94.56
47897;BME280;39629;51.400;5.494;2024-02-21T17:02:51;100530.94;;;8.42;94.68
47897;BME280;39629;51.400;5.494;2024-02-21T17:07:53;100527.47;;;8.41;95.29
47897;BME280;39629;51.400;5.494;2024-02-21T17:12:58;100517.25;;;8.43;95.12
47897;BME280;39629;51.400;5.494;2024-02-21T17:18:03;100511.41;;;8.41;95.27
47897;BME280;39629;51.400;5.494;2024-02-21T17:23:05;100506.06;;;8.41;94.68
47897;BME280;39629;51.400;5.494;2024-02-21T17:28:07;100502.59;;;8.41;94.40
47897;BME280;39629;51.400;5.494;2024-02-21T17:33:10;100496.28;;;8.37;95.11
47897;BME280;39629;51.400;5.494;2024-02-21T17:38:12;100480.84;;;8.34;95.90
47897;BME280;39629;51.400;5.494;2024-02-21T17:43:14;100473.91;;;8.33;95.88
47897;BME280;39629;51.400;5.494;2024-02-21T17:48:17;100462.09;;;8.34;95.77
47897;BME280;39629;51.400;5.494;2024-02-21T17:53:19;100446.66;;;8.31;96.75
47897;BME280;39629;51.400;5.494;2024-02-21T17:58:21;100437.53;;;8.32;96.19
47897;BME280;39629;51.400;5.494;2024-02-21T18:03:24;100434.66;;;8.28;96.68
47897;BME280;39629;51.400;5.494;2024-02-21T18:08:30;100415.94;;;8.28;96.86
47897;BME280;39629;51.400;5.494;2024-02-21T18:13:32;100415.63;;;8.30;97.55
47897;BME280;39629;51.400;5.494;2024-02-21T18:18:35;100409.38;;;8.34;96.56
47897;BME280;39629;51.400;5.494;2024-02-21T18:23:38;100394.72;;;8.32;97.18
47897;BME280;39629;51.400;5.494;2024-02-21T18:28:40;100383.25;;;8.31;96.98
47897;BME280;39629;51.400;5.494;2024-02-21T18:33:44;100381.69;;;8.39;96.64
47897;BME280;39629;51.400;5.494;2024-02-21T18:38:46;100365.16;;;8.37;96.79
47897;BME280;39629;51.400;5.494;2024-02-21T18:43:48;100357.13;;;8.37;97.72
47897;BME280;39629;51.400;5.494;2024-02-21T18:48:51;100350.03;;;8.41;96.86
47897;BME280;39629;51.400;5.494;2024-02-21T18:53:54;100339.66;;;8.39;98.04
47897;BME280;39629;51.400;5.494;2024-02-21T18:58:57;100328.16;;;8.39;98.07
47897;BME280;39629;51.400;5.494;2024-02-21T19:04:00;100314.78;;;8.47;97.05
47897;BME280;39629;51.400;5.494;2024-02-21T19:09:02;100300.78;;;8.42;97.41
47897;BME280;39629;51.400;5.494;2024-02-21T19:14:04;100293.53;;;8.42;98.04
47897;BME280;39629;51.400;5.494;2024-02-21T19:19:07;100284.25;;;8.48;96.79
47897;BME280;39629;51.400;5.494;2024-02-21T19:24:09;100280.00;;;8.47;96.97
47897;BME280;39629;51.400;5.494;2024-02-21T19:29:11;100275.09;;;8.49;96.98
47897;BME280;39629;51.400;5.494;2024-02-21T19:34:14;100259.38;;;8.48;97.71
47897;BME280;39629;51.400;5.494;2024-02-21T19:39:16;100254.00;;;8.48;98.17
47897;BME280;39629;51.400;5.494;2024-02-21T19:44:18;100248.50;;;8.53;97.07
47897;BME280;39629;51.400;5.494;2024-02-21T19:49:23;100240.47;;;8.53;97.18
47897;BME280;39629;51.400;5.494;2024-02-21T19:54:25;100222.66;;;8.57;98.19
47897;BME280;39629;51.400;5.494;2024-02-21T19:59:27;100203.16;;;8.57;98.06
47897;BME280;39629;51.400;5.494;2024-02-21T20:04:30;100195.75;;;8.54;98.14
47897;BME280;39629;51.400;5.494;2024-02-21T20:09:31;100180.00;;;8.52;97.89
47897;BME280;39629;51.400;5.494;2024-02-21T20:14:33;100181.09;;;8.60;97.90
47897;BME280;39629;51.400;5.494;2024-02-21T20:19:36;100167.22;;;8.66;97.65
47897;BME280;39629;51.400;5.494;2024-02-21T20:24:38;100152.41;;;8.69;97.87
47897;BME280;39629;51.400;5.494;2024-02-21T20:29:40;100152.25;;;8.65;98.17
47897;BME280;39629;51.400;5.494;2024-02-21T20:34:43;100145.78;;;8.75;98.00
47897;BME280;39629;51.400;5.494;2024-02-21T20:39:45;100134.00;;;8.67;98.17
47897;BME280;39629;51.400;5.494;2024-02-21T20:44:47;100120.44;;;8.72;98.81
47897;BME280;39629;51.400;5.494;2024-02-21T20:49:50;100114.75;;;8.74;98.67
47897;BME280;39629;51.400;5.494;2024-02-21T20:54:54;100117.09;;;8.75;98.63
47897;BME280;39629;51.400;5.494;2024-02-21T20:59:58;100098.22;;;8.72;98.49
47897;BME280;39629;51.400;5.494;2024-02-21T21:05:02;100087.06;;;8.70;99.63
47897;BME280;39629;51.400;5.494;2024-02-21T21:10:04;100091.44;;;8.74;99.24
47897;BME280;39629;51.400;5.494;2024-02-21T21:15:08;100078.53;;;8.76;99.23
47897;BME280;39629;51.400;5.494;2024-02-21T21:20:14;100077.09;;;8.79;99.68
47897;BME280;39629;51.400;5.494;2024-02-21T21:25:17;100067.81;;;8.76;99.75
47897;BME280;39629;51.400;5.494;2024-02-21T21:30:19;100064.16;;;8.81;99.90
47897;BME280;39629;51.400;5.494;2024-02-21T21:35:23;100065.28;;;8.80;100.00
47897;BME280;39629;51.400;5.494;2024-02-21T21:40:26;100055.19;;;8.77;100.00
47897;BME280;39629;51.400;5.494;2024-02-21T21:45:29;100057.69;;;8.82;99.56
47897;BME280;39629;51.400;5.494;2024-02-21T21:50:32;100045.25;;;8.86;99.44
47897;BME280;39629;51.400;5.494;2024-02-21T21:55:36;100033.78;;;8.86;100.00
47897;BME280;39629;51.400;5.494;2024-02-21T22:00:38;100028.41;;;8.86;99.84
47897;BME280;39629;51.400;5.494;2024-02-21T22:05:41;100018.63;;;8.90;100.00
47897;BME280;39629;51.400;5.494;2024-02-21T22:10:43;100006.47;;;8.92;100.00
47897;BME280;39629;51.400;5.494;2024-02-21T22:15:45;99994.78;;;8.97;100.00
47897;BME280;39629;51.400;5.494;2024-02-21T22:20:49;99988.78;;;9.00;100.00
47897;BME280;39629;51.400;5.494;2024-02-21T22:25:51;99987.81;;;9.04;100.00
47897;BME280;39629;51.400;5.494;2024-02-21T22:30:53;99979.63;;;9.01;100.00
47897;BME280;39629;51.400;5.494;2024-02-21T22:35:56;99966.38;;;9.04;100.00
47897;BME280;39629;51.400;5.494;2024-02-21T22:40:58;99962.38;;;9.10;100.00
47897;BME280;39629;51.400;5.494;2024-02-21T22:46:00;99951.22;;;9.08;100.00
47897;BME280;39629;51.400;5.494;2024-02-21T22:51:03;99948.66;;;9.12;100.00
47897;BME280;39629;51.400;5.494;2024-02-21T22:56:05;99956.19;;;9.19;100.00
47897;BME280;39629;51.400;5.494;2024-02-21T23:01:10;99936.34;;;9.20;100.00
47897;BME280;39629;51.400;5.494;2024-02-21T23:06:13;99941.38;;;9.21;100.00
47897;BME280;39629;51.400;5.494;2024-02-21T23:11:15;99937.25;;;9.24;100.00
47897;BME280;39629;51.400;5.494;2024-02-21T23:16:17;99934.50;;;9.32;100.00
47897;BME280;39629;51.400;5.494;2024-02-21T23:21:20;99944.44;;;9.32;100.00
47897;BME280;39629;51.400;5.494;2024-02-21T23:26:26;99918.66;;;9.39;100.00
47897;BME280;39629;51.400;5.494;2024-02-21T23:31:30;99925.47;;;9.37;100.00
47897;BME280;39629;51.400;5.494;2024-02-21T23:36:33;99921.78;;;9.41;99.97
47897;BME280;39629;51.400;5.494;2024-02-21T23:41:35;99920.56;;;9.39;100.00
47897;BME280;39629;51.400;5.494;2024-02-21T23:46:37;99913.09;;;9.44;100.00
47897;BME280;39629;51.400;5.494;2024-02-21T23:51:40;99902.81;;;9.47;100.00
47897;BME280;39629;51.400;5.494;2024-02-21T23:56:42;99917.91;;;9.51;100.00
